Terminal Aerodrome Forecast
Issued by NWS

Home | Current Version | Previous Version | Text Only | Print | Product List | Glossary On
Versions: 1 2 3 4 5 6 7 8 9 10 11 12 13 14 15
171
FTUS46 KLOX 161122
TAFWJF
TAF
KWJF 161122Z 1612/1712 VRB03KT P6SM SKC
     FM161900 05008KT P6SM SKC
     FM170100 32006KT P6SM SKC=

USA.gov is the U.S. government's official web portal to all federal, state and local government web resources and services.